createdAt,value
2023-02-18T00:00:47.679Z,0.00
2023-02-18T00:01:47.678Z,0.00
2023-02-18T00:02:47.770Z,0.00
2023-02-18T00:03:48.403Z,0.00
2023-02-18T00:04:47.648Z,0.00
2023-02-18T00:05:47.635Z,0.00
2023-02-18T00:06:47.638Z,0.00
2023-02-18T00:07:47.588Z,0.00
2023-02-18T00:08:47.602Z,0.00
2023-02-18T00:09:51.245Z,0.00
2023-02-18T00:10:47.570Z,0.00
2023-02-18T00:11:47.783Z,0.00
2023-02-18T00:12:47.548Z,0.00
2023-02-18T00:13:47.513Z,0.00
2023-02-18T00:14:47.521Z,0.00
2023-02-18T00:15:47.535Z,0.00
2023-02-18T00:16:48.436Z,0.00
2023-02-18T00:17:48.136Z,0.00
2023-02-18T00:18:47.452Z,0.00
2023-02-18T00:19:47.443Z,0.00
2023-02-18T00:20:47.454Z,0.00
2023-02-18T00:21:47.426Z,0.00
2023-02-18T00:22:47.406Z,0.00
2023-02-18T00:23:48.044Z,0.00
2023-02-18T00:24:47.387Z,0.00
2023-02-18T00:25:47.365Z,0.00
2023-02-18T00:26:47.371Z,0.00
2023-02-18T00:27:51.056Z,0.00
2023-02-18T00:28:48.331Z,0.00
2023-02-18T00:29:47.314Z,0.00
2023-02-18T00:30:47.338Z,0.00
2023-02-18T00:31:47.427Z,0.00
2023-02-18T00:32:48.966Z,0.00
2023-02-18T00:33:47.267Z,0.00
2023-02-18T00:34:52.686Z,0.00
2023-02-18T00:35:47.239Z,0.00
2023-02-18T00:36:47.226Z,0.00
2023-02-18T00:37:47.220Z,0.00
2023-02-18T00:38:47.225Z,0.00
2023-02-18T00:39:47.188Z,0.00
2023-02-18T00:40:47.180Z,0.00
2023-02-18T00:41:47.160Z,0.00
2023-02-18T00:42:47.419Z,0.00
2023-02-18T00:43:47.148Z,0.00
2023-02-18T00:44:47.304Z,0.00
2023-02-18T00:45:47.120Z,0.00
2023-02-18T00:46:47.413Z,0.00
2023-02-18T00:47:47.081Z,0.00
2023-02-18T00:48:47.074Z,0.00
2023-02-18T00:49:47.052Z,0.00
2023-02-18T00:50:47.073Z,0.00
2023-02-18T00:51:47.032Z,0.00
2023-02-18T00:52:47.022Z,0.00
2023-02-18T00:53:47.019Z,0.00
2023-02-18T00:54:47.010Z,0.00
2023-02-18T00:55:47.001Z,0.00
2023-02-18T00:56:47.041Z,0.00
2023-02-18T00:57:46.955Z,0.00
2023-02-18T00:58:51.665Z,0.00
2023-02-18T00:59:46.932Z,0.00
2023-02-18T01:00:46.916Z,0.00
2023-02-18T01:01:46.966Z,0.00
2023-02-18T01:02:46.917Z,0.00
2023-02-18T01:03:46.892Z,0.00
2023-02-18T01:04:46.941Z,0.00
2023-02-18T01:05:46.859Z,0.00
2023-02-18T01:06:46.861Z,0.00
2023-02-18T01:07:46.843Z,0.00
2023-02-18T01:08:46.880Z,0.00
2023-02-18T01:09:46.840Z,0.00
2023-02-18T01:10:46.791Z,0.00
2023-02-18T01:11:46.782Z,0.00
2023-02-18T01:12:46.770Z,0.00
2023-02-18T01:13:46.770Z,0.00
2023-02-18T01:14:46.785Z,0.00
2023-02-18T01:15:46.750Z,0.00
2023-02-18T01:16:47.674Z,0.00
2023-02-18T01:17:46.735Z,0.00
2023-02-18T01:18:46.953Z,0.00
2023-02-18T01:19:46.677Z,0.00
2023-02-18T01:20:46.782Z,0.00
2023-02-18T01:21:46.665Z,0.00
2023-02-18T01:22:46.649Z,0.00
2023-02-18T01:23:46.653Z,0.00
2023-02-18T01:24:46.789Z,0.00
2023-02-18T01:25:46.612Z,0.00
2023-02-18T01:26:46.674Z,0.00
2023-02-18T01:27:46.587Z,0.00
2023-02-18T01:28:46.578Z,0.00
2023-02-18T01:29:46.551Z,0.00
2023-02-18T01:30:46.550Z,0.00
2023-02-18T01:31:46.657Z,0.00
2023-02-18T01:32:46.540Z,0.00
2023-02-18T01:33:46.512Z,0.00
2023-02-18T01:34:46.501Z,0.00
2023-02-18T01:35:46.480Z,0.00
2023-02-18T01:36:46.721Z,0.00
2023-02-18T01:37:46.462Z,0.00
2023-02-18T01:38:46.465Z,0.00
2023-02-18T01:39:46.430Z,0.00
2023-02-18T01:40:46.410Z,0.00
2023-02-18T01:41:46.400Z,0.00
2023-02-18T01:42:46.379Z,0.00
2023-02-18T01:43:46.360Z,0.00
2023-02-18T01:44:46.447Z,0.00
2023-02-18T01:45:47.053Z,0.00
2023-02-18T01:46:46.424Z,0.00
2023-02-18T01:47:46.318Z,0.00
2023-02-18T01:48:46.311Z,0.00
2023-02-18T01:49:46.310Z,0.00
2023-02-18T01:50:46.332Z,0.00
2023-02-18T01:51:46.280Z,0.00
2023-02-18T01:52:46.543Z,0.00
2023-02-18T01:53:46.243Z,0.00
2023-02-18T01:54:46.242Z,0.00
2023-02-18T01:55:46.224Z,0.00
2023-02-18T01:56:46.250Z,0.00
2023-02-18T01:57:46.191Z,0.00
2023-02-18T01:58:50.251Z,0.00
2023-02-18T01:59:46.172Z,0.00
2023-02-18T02:00:46.201Z,0.00
2023-02-18T02:01:46.202Z,0.00
2023-02-18T02:02:46.162Z,0.00
2023-02-18T02:03:46.124Z,0.00
2023-02-18T02:04:46.106Z,0.00
2023-02-18T02:05:46.091Z,0.00
2023-02-18T02:06:46.082Z,0.00
2023-02-18T02:07:46.076Z,0.00
2023-02-18T02:08:46.075Z,0.00
2023-02-18T02:09:46.067Z,0.00
2023-02-18T02:10:46.053Z,0.00
2023-02-18T02:11:46.014Z,0.00
2023-02-18T02:12:46.005Z,0.00
2023-02-18T02:13:46.229Z,0.00
2023-02-18T02:14:46.040Z,0.00
2023-02-18T02:15:45.967Z,0.00
2023-02-18T02:16:45.965Z,0.00
2023-02-18T02:17:45.937Z,0.00
2023-02-18T02:18:45.929Z,0.00
2023-02-18T02:19:45.907Z,0.00
2023-02-18T02:20:45.950Z,0.00
2023-02-18T02:21:45.918Z,0.00
2023-02-18T02:22:45.881Z,0.00
2023-02-18T02:23:45.857Z,0.00
2023-02-18T02:24:45.854Z,0.00
2023-02-18T02:25:46.549Z,0.00
2023-02-18T02:26:45.852Z,0.00
2023-02-18T02:27:45.831Z,0.00
2023-02-18T02:28:45.806Z,0.00
2023-02-18T02:29:49.583Z,0.00
2023-02-18T02:30:46.040Z,0.00
2023-02-18T02:31:45.821Z,0.00
2023-02-18T02:32:45.795Z,0.00
2023-02-18T02:33:49.711Z,0.00
2023-02-18T02:34:45.731Z,0.00
2023-02-18T02:35:45.732Z,0.00
2023-02-18T02:36:45.706Z,0.00
2023-02-18T02:37:45.691Z,0.00
2023-02-18T02:38:45.704Z,0.00
2023-02-18T02:39:45.653Z,0.00
2023-02-18T02:40:45.651Z,0.00
2023-02-18T02:41:45.631Z,0.00
2023-02-18T02:42:45.614Z,0.00
2023-02-18T02:43:45.605Z,0.00
2023-02-18T02:44:45.615Z,0.00
2023-02-18T02:45:45.680Z,0.00
2023-02-18T02:46:45.588Z,0.00
2023-02-18T02:47:45.832Z,0.00
2023-02-18T02:48:50.070Z,0.00
2023-02-18T02:49:45.548Z,0.00
2023-02-18T02:50:45.567Z,0.00
2023-02-18T02:51:49.265Z,0.00
2023-02-18T02:52:45.501Z,0.00
2023-02-18T02:53:45.738Z,0.00
2023-02-18T02:54:45.536Z,0.00
2023-02-18T02:55:45.715Z,0.00
2023-02-18T02:56:49.296Z,0.00
2023-02-18T02:57:45.445Z,0.00
2023-02-18T02:58:45.418Z,0.00
2023-02-18T02:59:45.398Z,0.00
2023-02-18T03:00:45.428Z,0.00
2023-02-18T03:01:45.377Z,0.00
2023-02-18T03:02:45.424Z,0.00
2023-02-18T03:03:45.365Z,0.00
2023-02-18T03:04:45.351Z,0.00
2023-02-18T03:05:45.332Z,0.00
2023-02-18T03:06:45.327Z,0.00
2023-02-18T03:07:45.308Z,0.00
2023-02-18T03:08:45.312Z,0.00
2023-02-18T03:09:49.070Z,0.00
2023-02-18T03:10:45.270Z,0.00
2023-02-18T03:11:45.255Z,0.00
2023-02-18T03:12:45.232Z,0.00
2023-02-18T03:13:45.500Z,0.00
2023-02-18T03:14:45.973Z,0.00
2023-02-18T03:15:49.004Z,0.00
2023-02-18T03:16:48.950Z,0.00
2023-02-18T03:17:45.186Z,0.00
2023-02-18T03:18:45.433Z,0.00
2023-02-18T03:19:45.154Z,0.00
2023-02-18T03:20:49.043Z,0.00
2023-02-18T03:21:45.135Z,0.00
2023-02-18T03:22:45.105Z,0.00
2023-02-18T03:23:45.357Z,0.00
2023-02-18T03:24:45.090Z,0.00
2023-02-18T03:25:45.076Z,0.00
2023-02-18T03:26:45.096Z,0.00
2023-02-18T03:27:56.313Z,0.00
2023-02-18T03:28:45.997Z,0.00
2023-02-18T03:29:45.024Z,0.00
2023-02-18T03:30:45.251Z,0.00
2023-02-18T03:31:45.089Z,0.00
2023-02-18T03:32:45.035Z,0.00
2023-02-18T03:33:44.994Z,0.00
2023-02-18T03:34:48.720Z,0.00
2023-02-18T03:35:48.885Z,0.00
2023-02-18T03:36:45.930Z,0.00
2023-02-18T03:37:44.923Z,0.00
2023-02-18T03:38:45.606Z,0.00
2023-02-18T03:39:44.917Z,0.00
2023-02-18T03:40:44.883Z,0.00
2023-02-18T03:41:44.884Z,0.00
2023-02-18T03:42:44.852Z,0.00
2023-02-18T03:43:44.850Z,0.00
2023-02-18T03:44:45.102Z,0.00
2023-02-18T03:45:44.845Z,0.00
2023-02-18T03:46:44.819Z,0.00
2023-02-18T03:47:44.813Z,0.00
2023-02-18T03:48:48.395Z,0.00
2023-02-18T03:49:48.557Z,0.00
2023-02-18T03:50:44.784Z,0.00
2023-02-18T03:51:45.028Z,0.00
2023-02-18T03:52:44.735Z,0.00
2023-02-18T03:53:44.717Z,0.00
2023-02-18T03:54:45.654Z,0.00
2023-02-18T03:55:44.925Z,0.00
2023-02-18T03:56:44.730Z,0.00
2023-02-18T03:57:48.553Z,0.00
2023-02-18T03:58:49.485Z,0.00
2023-02-18T03:59:44.648Z,0.00
2023-02-18T04:00:44.622Z,0.00
2023-02-18T04:01:44.637Z,0.00
2023-02-18T04:02:44.621Z,0.00
2023-02-18T04:03:44.584Z,0.00
2023-02-18T04:04:44.579Z,0.00
2023-02-18T04:05:44.554Z,0.00
2023-02-18T04:06:44.547Z,0.00
2023-02-18T04:07:44.525Z,0.00
2023-02-18T04:08:44.553Z,0.00
2023-02-18T04:09:44.777Z,0.00
2023-02-18T04:10:44.504Z,0.00
2023-02-18T04:11:44.483Z,0.00
2023-02-18T04:12:44.481Z,0.00
2023-02-18T04:13:48.048Z,0.00
2023-02-18T04:14:55.890Z,0.00
2023-02-18T04:15:44.690Z,0.00
2023-02-18T04:16:45.434Z,0.00
2023-02-18T04:17:44.401Z,0.00
2023-02-18T04:18:44.390Z,0.00
2023-02-18T04:19:44.788Z,0.00
2023-02-18T04:20:44.397Z,0.00
2023-02-18T04:21:48.558Z,0.00
2023-02-18T04:22:45.304Z,0.00
2023-02-18T04:23:44.319Z,0.00
2023-02-18T04:24:45.274Z,0.00
2023-02-18T04:25:44.569Z,0.00
2023-02-18T04:26:44.312Z,0.00
2023-02-18T04:27:47.982Z,0.00
2023-02-18T04:28:44.271Z,0.00
2023-02-18T04:29:44.254Z,0.00
2023-02-18T04:30:48.109Z,0.00
2023-02-18T04:31:45.193Z,0.00
2023-02-18T04:32:44.233Z,0.00
2023-02-18T04:33:44.468Z,0.00
2023-02-18T04:34:44.204Z,0.00
2023-02-18T04:35:44.180Z,0.00
2023-02-18T04:36:44.154Z,0.00
2023-02-18T04:37:44.164Z,0.00
2023-02-18T04:38:48.974Z,0.00
2023-02-18T04:39:44.125Z,0.00
2023-02-18T04:40:44.114Z,0.00
2023-02-18T04:41:44.096Z,0.00
2023-02-18T04:42:44.085Z,0.00
2023-02-18T04:43:44.105Z,0.00
2023-02-18T04:44:47.022Z,0.00
2023-02-18T04:45:44.057Z,0.00
2023-02-18T04:46:44.708Z,0.00
2023-02-18T04:47:44.017Z,0.00
2023-02-18T04:48:44.015Z,0.00
2023-02-18T04:49:44.029Z,0.00
2023-02-18T04:50:43.990Z,0.00
2023-02-18T04:51:44.988Z,0.00
2023-02-18T04:52:43.958Z,0.00
2023-02-18T04:53:43.942Z,0.00
2023-02-18T04:54:44.170Z,0.00
2023-02-18T04:55:47.859Z,0.00
2023-02-18T04:56:44.839Z,0.00
2023-02-18T04:57:43.879Z,0.00
2023-02-18T04:58:43.877Z,0.00
2023-02-18T04:59:43.871Z,0.00
2023-02-18T05:00:43.872Z,0.00
2023-02-18T05:01:43.904Z,0.00
2023-02-18T05:02:44.522Z,0.00
2023-02-18T05:03:43.886Z,0.00
2023-02-18T05:04:43.811Z,0.00
2023-02-18T05:05:43.794Z,0.00
2023-02-18T05:06:44.479Z,0.00
2023-02-18T05:07:43.791Z,0.00
2023-02-18T05:08:43.759Z,0.00
2023-02-18T05:09:43.760Z,0.00
2023-02-18T05:10:47.455Z,0.00
2023-02-18T05:11:43.720Z,0.00
2023-02-18T05:12:43.705Z,0.00
2023-02-18T05:13:47.401Z,0.00
2023-02-18T05:14:43.674Z,0.00
2023-02-18T05:15:43.680Z,0.00
2023-02-18T05:16:44.614Z,0.00
2023-02-18T05:17:43.641Z,0.00
2023-02-18T05:18:43.622Z,0.00
2023-02-18T05:19:43.644Z,0.00
2023-02-18T05:20:43.606Z,0.00
2023-02-18T05:21:43.596Z,0.00
2023-02-18T05:22:43.568Z,0.00
2023-02-18T05:23:43.565Z,0.00
2023-02-18T05:24:43.546Z,0.00
2023-02-18T05:25:43.554Z,0.00
2023-02-18T05:26:43.541Z,0.00
2023-02-18T05:27:43.520Z,0.00
2023-02-18T05:28:43.508Z,0.00
2023-02-18T05:29:43.517Z,0.00
2023-02-18T05:30:43.520Z,0.00
2023-02-18T05:31:45.261Z,0.00
2023-02-18T05:32:43.448Z,0.00
2023-02-18T05:33:43.429Z,0.00
2023-02-18T05:34:43.431Z,0.00
2023-02-18T05:35:43.417Z,0.00
2023-02-18T05:36:47.500Z,0.00
2023-02-18T05:37:43.508Z,0.00
2023-02-18T05:38:43.628Z,0.00
2023-02-18T05:39:43.370Z,0.00
2023-02-18T05:40:43.346Z,0.00
2023-02-18T05:41:43.331Z,0.00
2023-02-18T05:42:43.987Z,0.00
2023-02-18T05:43:43.632Z,0.00
2023-02-18T05:44:43.297Z,0.00
2023-02-18T05:45:43.284Z,0.00
2023-02-18T05:46:47.130Z,0.00
2023-02-18T05:48:04.265Z,0.00
2023-02-18T05:48:43.931Z,0.00
2023-02-18T05:49:43.261Z,0.00
2023-02-18T05:50:43.504Z,0.00
2023-02-18T05:51:43.205Z,0.00
2023-02-18T05:52:43.885Z,0.00
2023-02-18T05:53:43.933Z,0.00
2023-02-18T05:54:43.425Z,0.00
2023-02-18T05:55:43.266Z,0.00
2023-02-18T05:56:43.141Z,0.00
2023-02-18T05:57:43.134Z,0.00
2023-02-18T05:58:43.127Z,0.00
2023-02-18T05:59:43.107Z,0.00
2023-02-18T06:00:46.737Z,0.00
2023-02-18T06:01:43.101Z,0.00
2023-02-18T06:02:43.154Z,0.00
2023-02-18T06:03:43.047Z,0.00
2023-02-18T06:04:43.055Z,0.00
2023-02-18T06:05:43.067Z,0.00
2023-02-18T06:06:43.011Z,0.00
2023-02-18T06:07:43.030Z,0.00
2023-02-18T06:08:43.693Z,0.00
2023-02-18T06:09:42.980Z,0.00
2023-02-18T06:10:42.958Z,0.00
2023-02-18T06:11:43.683Z,0.00
2023-02-18T06:12:42.938Z,0.00
2023-02-18T06:13:42.960Z,0.00
2023-02-18T06:14:42.916Z,0.00
2023-02-18T06:15:42.930Z,0.00
2023-02-18T06:16:42.910Z,0.00
2023-02-18T06:17:46.643Z,0.00
2023-02-18T06:18:42.867Z,0.00
2023-02-18T06:19:42.946Z,0.00
2023-02-18T06:20:43.094Z,0.00
2023-02-18T06:21:42.824Z,0.00
2023-02-18T06:22:42.807Z,0.00
2023-02-18T06:23:42.794Z,0.00
2023-02-18T06:24:42.787Z,0.00
2023-02-18T06:25:42.795Z,0.00
2023-02-18T06:26:46.552Z,0.00
2023-02-18T06:27:42.739Z,0.00
2023-02-18T06:28:43.007Z,0.00
2023-02-18T06:29:42.723Z,0.00
2023-02-18T06:30:42.943Z,0.00
2023-02-18T06:31:42.822Z,0.00
2023-02-18T06:32:46.479Z,0.00
2023-02-18T06:33:42.676Z,0.00
2023-02-18T06:34:42.661Z,0.00
2023-02-18T06:35:46.705Z,0.00
2023-02-18T06:36:42.622Z,0.00
2023-02-18T06:37:42.634Z,0.00
2023-02-18T06:38:46.419Z,0.00
2023-02-18T06:39:42.824Z,0.00
2023-02-18T06:40:42.584Z,0.00
2023-02-18T06:41:42.561Z,0.00
2023-02-18T06:42:42.565Z,0.00
2023-02-18T06:43:42.655Z,0.00
2023-02-18T06:44:42.526Z,0.00
2023-02-18T06:45:42.514Z,0.00
2023-02-18T06:46:42.501Z,0.00
2023-02-18T06:47:42.492Z,0.00
2023-02-18T06:48:42.716Z,0.00
2023-02-18T06:49:42.477Z,0.00
2023-02-18T06:50:47.059Z,0.00
2023-02-18T06:51:42.427Z,0.00
2023-02-18T06:52:42.417Z,0.00
2023-02-18T06:53:42.406Z,0.00
2023-02-18T06:54:43.596Z,0.00
2023-02-18T06:55:42.501Z,0.00
2023-02-18T06:56:42.361Z,5.62
2023-02-18T06:57:42.359Z,5.62
2023-02-18T06:58:42.344Z,5.62
2023-02-18T06:59:42.327Z,5.62
2023-02-18T07:00:42.364Z,5.62
2023-02-18T07:01:42.328Z,5.62
2023-02-18T07:02:42.301Z,5.62
2023-02-18T07:03:42.299Z,11.25
2023-02-18T07:04:42.272Z,11.25
2023-02-18T07:05:42.250Z,11.25
2023-02-18T07:06:42.233Z,11.25
2023-02-18T07:07:42.252Z,11.25
2023-02-18T07:08:42.213Z,11.25
2023-02-18T07:09:42.194Z,11.25
2023-02-18T07:10:42.177Z,11.25
2023-02-18T07:11:42.178Z,11.25
2023-02-18T07:12:42.153Z,11.25
2023-02-18T07:13:42.169Z,11.25
2023-02-18T07:14:42.144Z,16.88
2023-02-18T07:15:42.144Z,11.25
2023-02-18T07:16:42.199Z,11.25
2023-02-18T07:17:42.759Z,16.88
2023-02-18T07:18:42.083Z,16.88
2023-02-18T07:19:42.174Z,16.88
2023-02-18T07:20:42.058Z,16.88
2023-02-18T07:21:42.036Z,16.88
2023-02-18T07:22:42.028Z,16.88
2023-02-18T07:23:42.020Z,16.88
2023-02-18T07:24:42.009Z,22.50
2023-02-18T07:25:42.338Z,28.12
2023-02-18T07:26:41.976Z,28.12
2023-02-18T07:27:41.958Z,28.12
2023-02-18T07:28:41.976Z,22.50
2023-02-18T07:29:41.937Z,22.50
2023-02-18T07:30:41.922Z,28.12
2023-02-18T07:31:42.149Z,28.12
2023-02-18T07:32:42.853Z,28.12
2023-02-18T07:33:41.892Z,28.12
2023-02-18T07:34:43.555Z,28.12
2023-02-18T07:35:41.866Z,33.75
2023-02-18T07:36:41.861Z,28.12
2023-02-18T07:37:41.861Z,28.12
2023-02-18T07:38:42.961Z,28.12
2023-02-18T07:39:41.814Z,22.50
2023-02-18T07:40:41.811Z,22.50
2023-02-18T07:41:41.791Z,22.50
2023-02-18T07:42:41.796Z,22.50
2023-02-18T07:43:41.943Z,22.50
2023-02-18T07:44:41.743Z,16.88
2023-02-18T07:45:41.752Z,22.50
2023-02-18T07:46:42.655Z,28.12
2023-02-18T07:47:41.727Z,22.50
2023-02-18T07:48:43.385Z,22.50
2023-02-18T07:49:42.765Z,22.50
2023-02-18T07:50:42.632Z,28.12
2023-02-18T07:51:41.650Z,28.12
2023-02-18T07:52:42.365Z,22.50
2023-02-18T07:53:41.638Z,22.50
2023-02-18T07:54:41.618Z,22.50
2023-02-18T07:55:41.627Z,22.50
2023-02-18T07:56:41.605Z,22.50
2023-02-18T07:57:41.594Z,22.50
2023-02-18T07:58:41.581Z,16.88
2023-02-18T07:59:41.547Z,16.88
2023-02-18T08:00:41.809Z,16.88
2023-02-18T08:01:42.982Z,22.50
2023-02-18T08:02:48.914Z,22.50
2023-02-18T08:03:41.519Z,28.12
2023-02-18T08:04:41.480Z,22.50
2023-02-18T08:05:41.506Z,22.50
2023-02-18T08:06:41.748Z,28.12
2023-02-18T08:07:41.509Z,28.12
2023-02-18T08:08:41.445Z,28.12
2023-02-18T08:09:41.464Z,28.12
2023-02-18T08:10:41.682Z,22.50
2023-02-18T08:11:41.634Z,28.12
2023-02-18T08:12:41.391Z,28.12
2023-02-18T08:13:41.416Z,28.12
2023-02-18T08:14:41.645Z,33.75
2023-02-18T08:15:41.369Z,39.38
2023-02-18T08:16:41.566Z,61.88
2023-02-18T08:17:41.337Z,56.25
2023-02-18T08:18:41.579Z,56.25
2023-02-18T08:19:43.110Z,73.12
2023-02-18T08:20:41.324Z,61.88
2023-02-18T08:21:41.542Z,50.62
2023-02-18T08:22:41.270Z,45.00
2023-02-18T08:23:41.511Z,45.00
2023-02-18T08:24:41.510Z,39.38
2023-02-18T08:25:41.284Z,39.38
2023-02-18T08:26:54.586Z,45.00
2023-02-18T08:27:42.209Z,45.00
2023-02-18T08:28:41.203Z,50.62
2023-02-18T08:29:41.485Z,67.50
2023-02-18T08:30:41.522Z,67.50
2023-02-18T08:31:43.790Z,73.12
2023-02-18T08:32:41.147Z,84.38
2023-02-18T08:33:41.126Z,73.12
2023-02-18T08:34:41.117Z,50.62
2023-02-18T08:35:41.121Z,45.00
2023-02-18T08:36:41.350Z,45.00
2023-02-18T08:37:53.654Z,39.38
2023-02-18T08:38:42.070Z,39.38
2023-02-18T08:39:41.319Z,50.62
2023-02-18T08:40:41.295Z,67.50
2023-02-18T08:41:41.067Z,67.50
2023-02-18T08:42:41.292Z,61.88
2023-02-18T08:43:41.289Z,61.88
2023-02-18T08:44:40.998Z,73.12
2023-02-18T08:45:41.103Z,56.25
2023-02-18T08:46:40.978Z,50.62
2023-02-18T08:48:18.286Z,56.25
2023-02-18T08:48:42.225Z,56.25
2023-02-18T08:49:40.931Z,45.00
2023-02-18T08:50:41.194Z,56.25
2023-02-18T08:51:40.899Z,67.50
2023-02-18T08:52:40.894Z,73.12
2023-02-18T08:53:40.890Z,56.25
2023-02-18T08:54:40.979Z,61.88
2023-02-18T08:55:40.865Z,61.88
2023-02-18T08:56:40.837Z,78.75
2023-02-18T08:57:41.563Z,61.88
2023-02-18T08:58:41.282Z,84.38
2023-02-18T08:59:40.832Z,90.00
2023-02-18T09:00:40.833Z,90.00
2023-02-18T09:01:40.839Z,90.00
2023-02-18T09:02:40.763Z,84.38
2023-02-18T09:03:40.754Z,78.75
2023-02-18T09:04:41.495Z,84.38
2023-02-18T09:05:42.420Z,73.12
2023-02-18T09:06:41.264Z,84.38
2023-02-18T09:07:40.712Z,67.50
2023-02-18T09:08:40.694Z,73.12
2023-02-18T09:09:41.396Z,84.38
2023-02-18T09:10:41.396Z,84.38
2023-02-18T09:11:40.667Z,78.75
2023-02-18T09:12:41.397Z,84.38
2023-02-18T09:13:41.341Z,90.00
2023-02-18T09:14:40.879Z,90.00
2023-02-18T09:15:40.932Z,78.75
2023-02-18T09:16:40.581Z,95.62
2023-02-18T09:17:40.571Z,90.00
2023-02-18T09:18:40.687Z,90.00
2023-02-18T09:19:40.551Z,90.00
2023-02-18T09:20:42.240Z,84.38
2023-02-18T09:21:40.797Z,95.62
2023-02-18T09:22:41.469Z,101.25
2023-02-18T09:23:40.735Z,90.00
2023-02-18T09:24:41.227Z,90.00
2023-02-18T09:25:40.497Z,95.62
2023-02-18T09:26:40.460Z,78.75
2023-02-18T09:27:40.688Z,78.75
2023-02-18T09:28:41.123Z,84.38
2023-02-18T09:29:40.413Z,84.38
2023-02-18T09:30:41.282Z,73.12
2023-02-18T09:31:40.477Z,73.12
2023-02-18T09:32:40.423Z,56.25
2023-02-18T09:33:40.361Z,56.25
2023-02-18T09:34:42.012Z,45.00
2023-02-18T09:35:40.363Z,45.00
2023-02-18T09:36:40.438Z,67.50
2023-02-18T09:37:40.318Z,78.75
2023-02-18T09:38:40.561Z,78.75
2023-02-18T09:39:40.283Z,90.00
2023-02-18T09:40:40.546Z,95.62
2023-02-18T09:41:40.258Z,112.50
2023-02-18T09:42:40.297Z,135.00
2023-02-18T09:43:41.070Z,151.88
2023-02-18T09:44:40.221Z,168.75
2023-02-18T09:45:40.204Z,168.75
2023-02-18T09:46:40.215Z,135.00
2023-02-18T09:47:40.180Z,112.50
2023-02-18T09:48:40.662Z,84.38
2023-02-18T09:49:40.168Z,78.75
2023-02-18T09:50:40.132Z,67.50
2023-02-18T09:51:40.131Z,61.88
2023-02-18T09:52:40.134Z,73.12
2023-02-18T09:53:40.366Z,67.50
2023-02-18T09:54:40.197Z,56.25
2023-02-18T09:55:40.074Z,50.62
2023-02-18T09:56:40.661Z,50.62
2023-02-18T09:57:40.055Z,61.88
2023-02-18T09:58:40.876Z,67.50
2023-02-18T09:59:40.977Z,67.50
2023-02-18T10:00:40.039Z,73.12
2023-02-18T10:01:40.051Z,112.50
2023-02-18T10:02:40.272Z,168.75
2023-02-18T10:03:39.978Z,202.50
2023-02-18T10:04:40.235Z,174.38
2023-02-18T10:05:39.964Z,174.38
2023-02-18T10:06:39.981Z,163.12
2023-02-18T10:07:39.963Z,151.88
2023-02-18T10:08:40.183Z,151.88
2023-02-18T10:09:42.089Z,247.50
2023-02-18T10:10:39.888Z,281.25
2023-02-18T10:11:39.905Z,213.75
2023-02-18T10:12:39.905Z,157.50
2023-02-18T10:13:39.847Z,174.38
2023-02-18T10:14:39.845Z,140.62
2023-02-18T10:15:40.599Z,123.75
2023-02-18T10:16:39.833Z,135.00
2023-02-18T10:17:39.813Z,168.75
2023-02-18T10:18:39.820Z,163.12
2023-02-18T10:19:40.024Z,123.75
2023-02-18T10:20:40.016Z,157.50
2023-02-18T10:21:40.466Z,163.12
2023-02-18T10:22:39.726Z,157.50
2023-02-18T10:23:39.978Z,140.62
2023-02-18T10:24:39.760Z,106.88
2023-02-18T10:25:40.437Z,123.75
2023-02-18T10:26:39.679Z,151.88
2023-02-18T10:27:39.667Z,174.38
2023-02-18T10:28:40.869Z,140.62
2023-02-18T10:29:39.651Z,157.50
2023-02-18T10:30:39.934Z,146.25
2023-02-18T10:31:39.968Z,168.75
2023-02-18T10:32:39.611Z,129.38
2023-02-18T10:33:39.602Z,140.62
2023-02-18T10:34:39.588Z,118.12
2023-02-18T10:35:39.811Z,129.38
2023-02-18T10:36:39.840Z,118.12
2023-02-18T10:37:39.549Z,135.00
2023-02-18T10:38:39.540Z,185.62
2023-02-18T10:39:39.526Z,180.00
2023-02-18T10:40:40.124Z,174.38
2023-02-18T10:41:39.494Z,185.62
2023-02-18T10:42:39.496Z,146.25
2023-02-18T10:43:39.475Z,95.62
2023-02-18T10:44:39.481Z,101.25
2023-02-18T10:45:39.436Z,118.12
2023-02-18T10:46:39.721Z,146.25
2023-02-18T10:47:39.681Z,185.62
2023-02-18T10:48:39.677Z,180.00
2023-02-18T10:49:39.388Z,196.88
2023-02-18T10:50:39.367Z,157.50
2023-02-18T10:51:39.387Z,163.12
2023-02-18T10:52:39.348Z,191.25
2023-02-18T10:53:39.611Z,185.62
2023-02-18T10:54:40.089Z,202.50
2023-02-18T10:55:39.334Z,196.88
2023-02-18T10:56:39.353Z,163.12
2023-02-18T10:57:39.308Z,157.50
2023-02-18T10:58:39.280Z,140.62
2023-02-18T10:59:39.268Z,135.00
2023-02-18T11:00:39.564Z,106.88
2023-02-18T11:01:39.250Z,123.75
2023-02-18T11:02:39.237Z,168.75
2023-02-18T11:03:40.173Z,163.12
2023-02-18T11:04:39.258Z,129.38
2023-02-18T11:05:39.197Z,129.38
2023-02-18T11:06:40.240Z,123.75
2023-02-18T11:07:39.149Z,106.88
2023-02-18T11:08:39.389Z,123.75
2023-02-18T11:09:39.134Z,174.38
2023-02-18T11:10:39.126Z,185.62
2023-02-18T11:11:39.119Z,236.25
2023-02-18T11:12:39.930Z,185.62
2023-02-18T11:13:39.100Z,151.88
2023-02-18T11:14:39.078Z,163.12
2023-02-18T11:15:39.050Z,180.00
2023-02-18T11:16:39.043Z,196.88
2023-02-18T11:17:39.041Z,213.75
2023-02-18T11:18:39.045Z,157.50
2023-02-18T11:19:39.042Z,135.00
2023-02-18T11:20:39.002Z,146.25
2023-02-18T11:21:39.238Z,135.00
2023-02-18T11:22:39.701Z,163.12
2023-02-18T11:23:38.975Z,157.50
2023-02-18T11:24:39.049Z,157.50
2023-02-18T11:25:38.928Z,163.12
2023-02-18T11:26:39.633Z,174.38
2023-02-18T11:27:39.854Z,219.38
2023-02-18T11:28:43.663Z,275.62
2023-02-18T11:29:38.910Z,225.00
2023-02-18T11:30:38.986Z,174.38
2023-02-18T11:31:38.907Z,135.00
2023-02-18T11:32:38.835Z,118.12
2023-02-18T11:33:39.585Z,129.38
2023-02-18T11:34:38.818Z,163.12
2023-02-18T11:35:38.811Z,129.38
2023-02-18T11:36:38.815Z,129.38
2023-02-18T11:37:39.041Z,146.25
2023-02-18T11:38:39.719Z,135.00
2023-02-18T11:39:38.759Z,151.88
2023-02-18T11:40:38.752Z,146.25
2023-02-18T11:41:38.743Z,140.62
2023-02-18T11:42:42.568Z,163.12
2023-02-18T11:43:38.698Z,180.00
2023-02-18T11:44:39.399Z,196.88
2023-02-18T11:45:38.672Z,191.25
2023-02-18T11:46:38.702Z,151.88
2023-02-18T11:47:39.380Z,129.38
2023-02-18T11:48:38.660Z,118.12
2023-02-18T11:49:38.655Z,112.50
2023-02-18T11:50:38.626Z,118.12
2023-02-18T11:51:39.352Z,157.50
2023-02-18T11:52:38.852Z,163.12
2023-02-18T11:53:39.304Z,163.12
2023-02-18T11:54:38.833Z,168.75
2023-02-18T11:55:38.806Z,163.12
2023-02-18T11:56:38.547Z,129.38
2023-02-18T11:57:39.256Z,129.38
2023-02-18T11:58:42.322Z,163.12
2023-02-18T11:59:42.221Z,168.75
2023-02-18T12:00:38.502Z,168.75
2023-02-18T12:01:38.605Z,180.00
2023-02-18T12:02:38.483Z,241.88
2023-02-18T12:03:38.453Z,202.50
2023-02-18T12:04:38.424Z,123.75
2023-02-18T12:05:38.423Z,112.50
2023-02-18T12:06:38.463Z,118.12
2023-02-18T12:07:38.394Z,106.88
2023-02-18T12:08:38.399Z,101.25
2023-02-18T12:09:39.085Z,129.38
2023-02-18T12:10:38.391Z,135.00
2023-02-18T12:11:38.347Z,112.50
2023-02-18T12:12:38.641Z,112.50
2023-02-18T12:13:38.591Z,118.12
2023-02-18T12:14:38.325Z,135.00
2023-02-18T12:15:38.561Z,123.75
2023-02-18T12:16:38.364Z,95.62
2023-02-18T12:17:38.296Z,90.00
2023-02-18T12:18:40.012Z,90.00
2023-02-18T12:19:39.000Z,90.00
2023-02-18T12:20:38.221Z,95.62
2023-02-18T12:21:38.221Z,90.00
2023-02-18T12:22:38.461Z,95.62
2023-02-18T12:23:38.211Z,95.62
2023-02-18T12:24:38.290Z,78.75
2023-02-18T12:25:38.196Z,67.50
2023-02-18T12:26:38.161Z,67.50
2023-02-18T12:27:38.151Z,78.75
2023-02-18T12:28:38.124Z,67.50
2023-02-18T12:29:38.126Z,78.75
2023-02-18T12:30:42.833Z,67.50
2023-02-18T12:31:38.184Z,73.12
2023-02-18T12:32:39.042Z,67.50
2023-02-18T12:33:39.481Z,56.25
2023-02-18T12:34:38.308Z,67.50
2023-02-18T12:35:38.301Z,78.75
2023-02-18T12:36:38.095Z,84.38
2023-02-18T12:37:38.036Z,78.75
2023-02-18T12:38:38.972Z,73.12
2023-02-18T12:39:37.988Z,95.62
2023-02-18T12:40:38.205Z,84.38
2023-02-18T12:41:37.978Z,78.75
2023-02-18T12:42:38.707Z,78.75
2023-02-18T12:43:37.937Z,106.88
2023-02-18T12:44:39.582Z,118.12
2023-02-18T12:45:37.938Z,135.00
2023-02-18T12:46:37.915Z,90.00
2023-02-18T12:47:38.717Z,90.00
2023-02-18T12:48:38.160Z,90.00
2023-02-18T12:49:38.021Z,84.38
2023-02-18T12:50:37.861Z,90.00
2023-02-18T12:51:38.089Z,123.75
2023-02-18T12:52:38.071Z,129.38
2023-02-18T12:53:39.469Z,106.88
2023-02-18T12:54:37.810Z,118.12
2023-02-18T12:55:37.803Z,118.12
2023-02-18T12:56:52.469Z,112.50
2023-02-18T12:57:37.764Z,101.25
2023-02-18T12:58:42.192Z,90.00
2023-02-18T12:59:37.993Z,106.88
2023-02-18T13:00:37.758Z,123.75
2023-02-18T13:01:42.673Z,101.25